Time;durP1;ratioP1;P1;durP2;ratioP2;P2;SDS_P1;SDS_P2;PMS_P1;PMS_P2;Temp;Humidity;BMP_temperature;BMP_pressure;BME280_temperature;BME280_humidity;BME280_pressure;Samples;Min_cycle;Max_cycle;Signal;HPM_P1;HPM_P2
2023/03/07 00:02:22;;;;;;;;;;;;;;;7.16;76.47;99053.00;5093783;28;19916;-42
2023/03/07 00:04:48;;;;;;;;;;;;;;;6.85;77.16;99049.00;5093556;28;20037;-42
2023/03/07 00:07:13;;;;;;;;;;;;;;;6.95;75.86;99049.50;5093642;28;19935;-43
2023/03/07 00:09:38;;;;;;;;;;;;;;;7.00;76.16;99044.41;5093278;28;19924;-43
2023/03/07 00:12:04;;;;;;;;;;;;;;;6.74;77.95;99042.47;5093398;28;19996;-43
2023/03/07 00:14:29;;;;;;;;;;;;;;;6.79;77.92;99040.03;5093520;28;19918;-43
2023/03/07 00:16:54;;;;;;;;;;;;;;;7.17;76.30;99052.00;5093394;28;19923;-43
2023/03/07 00:19:20;;;;;;;;;;;;;;;6.96;76.65;99050.31;5093248;28;19919;-43
2023/03/07 00:21:45;;;;;;;;;;;;;;;6.95;76.02;99044.19;5093347;28;19920;-42
2023/03/07 00:24:10;;;;;;;;;;;;;;;6.91;76.48;99047.41;5093372;28;19916;-43
2023/03/07 00:26:38;;;;;;;;;;;;;;;7.03;77.05;99049.31;5093231;28;19992;-42
2023/03/07 00:29:04;;;;;;;;;;;;;;;6.99;77.02;99041.97;5093232;28;19912;-42
2023/03/07 00:31:29;;;;;;;;;;;;;;;6.93;77.05;99033.00;5093017;28;19923;-42
2023/03/07 00:33:54;;;;;;;;;;;;;;;6.55;79.17;99043.16;5092918;28;20010;-43
2023/03/07 00:36:20;;;;;;;;;;;;;;;6.80;77.74;99043.53;5093049;28;19948;-42
2023/03/07 00:38:46;;;;;;;;;;;;;;;6.81;77.22;99040.66;5093499;28;19912;-42
2023/03/07 00:41:12;;;;;;;;;;;;;;;6.88;76.13;99042.53;5093806;28;19923;-42
2023/03/07 00:43:37;;;;;;;;;;;;;;;6.78;77.51;99038.41;5093386;28;19916;-42
2023/03/07 00:46:03;;;;;;;;;;;;;;;6.50;78.24;99035.00;5093608;28;19934;-41
2023/03/07 00:48:29;;;;;;;;;;;;;;;6.59;78.91;99034.66;5093748;28;20015;-42
2023/03/07 00:50:55;;;;;;;;;;;;;;;6.40;79.32;99032.72;5093710;28;20015;-42
2023/03/07 00:53:20;;;;;;;;;;;;;;;6.42;79.82;99014.84;5092584;28;19918;-43
2023/03/07 00:56:15;;;;;;;;;;;;;;;6.35;79.55;99019.25;5093239;28;20382;-43
2023/03/07 00:58:40;;;;;;;;;;;;;;;6.39;79.19;99008.09;5083049;28;19912;-43
2023/03/07 01:01:06;;;;;;;;;;;;;;;6.37;78.73;99004.03;5093428;28;19970;-42
2023/03/07 01:03:32;;;;;;;;;;;;;;;6.50;77.63;99001.47;5093290;28;19920;-42
2023/03/07 01:06:01;;;;;;;;;;;;;;;6.09;78.48;98998.75;5093177;28;19916;-43
2023/03/07 01:08:26;;;;;;;;;;;;;;;6.18;79.09;99005.53;5093124;28;19912;-42
2023/03/07 01:10:51;;;;;;;;;;;;;;;6.37;77.96;98994.25;5092949;28;20292;-43
2023/03/07 01:13:17;;;;;;;;;;;;;;;6.35;78.42;98998.94;5092881;28;19912;-43
2023/03/07 01:15:43;;;;;;;;;;;;;;;6.29;78.87;99001.53;5092742;28;19916;-43
2023/03/07 01:18:08;;;;;;;;;;;;;;;6.15;79.71;99004.09;5092917;28;19927;-42
2023/03/07 01:20:34;;;;;;;;;;;;;;;6.33;80.25;99002.78;5093129;28;19919;-43
2023/03/07 01:23:00;;;;;;;;;;;;;;;6.23;79.56;98997.84;5092654;28;20432;-42
2023/03/07 01:25:26;;;;;;;;;;;;;;;6.21;80.72;98994.59;5092799;28;20014;-42
2023/03/07 01:27:51;;;;;;;;;;;;;;;6.20;80.68;98992.94;5092732;28;19912;-42
2023/03/07 01:30:16;;;;;;;;;;;;;;;6.22;79.84;98994.38;5092449;28;19916;-42
2023/03/07 01:32:42;;;;;;;;;;;;;;;5.98;80.89;98981.63;5092535;28;19977;-42
2023/03/07 01:35:07;;;;;;;;;;;;;;;6.12;80.37;98988.63;5092495;28;19912;-42
2023/03/07 01:37:33;;;;;;;;;;;;;;;5.98;81.48;98985.06;5092515;28;19916;-42
2023/03/07 01:39:58;;;;;;;;;;;;;;;6.02;80.45;98990.78;5092548;28;19912;-42
2023/03/07 01:42:23;;;;;;;;;;;;;;;5.90;80.11;98994.91;5092540;28;20351;-42
2023/03/07 01:45:03;;;;;;;;;;;;;;;5.48;83.05;98995.59;5092549;28;19912;-41
2023/03/07 01:47:29;;;;;;;;;;;;;;;5.73;81.37;98992.56;5092566;28;19912;-42
2023/03/07 01:49:55;;;;;;;;;;;;;;;5.61;82.07;98997.53;5092434;28;19935;-43
2023/03/07 01:52:27;;;;;;;;;;;;;;;5.79;81.69;99002.38;5092377;28;20368;-42
2023/03/07 01:54:57;;;;;;;;;;;;;;;5.61;81.87;99013.38;5092062;28;19963;-42
2023/03/07 01:57:25;;;;;;;;;;;;;;;5.56;81.92;99007.00;5091929;28;20434;-42
2023/03/07 01:59:53;;;;;;;;;;;;;;;5.47;82.98;99003.69;5092413;28;19916;-42
2023/03/07 02:02:21;;;;;;;;;;;;;;;5.37;83.23;98998.75;5091772;28;19919;-42
2023/03/07 02:04:59;;;;;;;;;;;;;;;5.21;83.88;99004.25;5091335;28;19912;-42
2023/03/07 02:07:27;;;;;;;;;;;;;;;4.88;84.90;99000.22;5091141;28;19918;-42
2023/03/07 02:09:53;;;;;;;;;;;;;;;5.11;84.43;99001.09;5091842;28;19974;-42
2023/03/07 02:12:18;;;;;;;;;;;;;;;5.11;83.97;98994.00;5091428;28;20531;-42
2023/03/07 02:14:44;;;;;;;;;;;;;;;5.35;83.46;98995.47;5091914;28;19959;-42
2023/03/07 02:17:10;;;;;;;;;;;;;;;5.30;82.14;99005.75;5091730;28;19995;-42
2023/03/07 02:19:41;;;;;;;;;;;;;;;5.02;83.24;98995.91;5091857;28;19970;-42
2023/03/07 02:22:15;;;;;;;;;;;;;;;5.03;83.44;98994.91;5091771;28;20391;-42
2023/03/07 02:24:47;;;;;;;;;;;;;;;5.09;83.28;98994.16;5091464;28;20028;-43
2023/03/07 02:27:13;;;;;;;;;;;;;;;5.08;83.23;99000.47;5091566;28;20395;-42
2023/03/07 02:29:39;;;;;;;;;;;;;;;5.01;83.56;98996.94;5091651;28;19928;-43
2023/03/07 02:32:04;;;;;;;;;;;;;;;5.22;83.62;99001.41;5091594;28;19944;-42
2023/03/07 02:34:30;;;;;;;;;;;;;;;5.17;82.75;99003.78;5091500;28;19954;-42
2023/03/07 02:36:58;;;;;;;;;;;;;;;5.09;83.45;99012.63;5090744;28;19912;-42
2023/03/07 02:39:25;;;;;;;;;;;;;;;5.13;83.58;98999.91;5091485;28;19916;-42
2023/03/07 02:41:53;;;;;;;;;;;;;;;5.10;83.62;98997.63;5091328;28;19912;-43
2023/03/07 02:44:19;;;;;;;;;;;;;;;5.22;82.52;98987.41;5091151;28;19976;-42
2023/03/07 02:46:44;;;;;;;;;;;;;;;5.30;82.63;98984.66;5091445;28;20007;-43
2023/03/07 02:49:09;;;;;;;;;;;;;;;5.44;82.28;98994.31;5091170;28;20002;-42
2023/03/07 02:51:34;;;;;;;;;;;;;;;5.28;83.13;98984.84;5091008;28;19941;-43
2023/03/07 02:54:00;;;;;;;;;;;;;;;5.13;82.45;98994.63;5090383;28;19912;-41
2023/03/07 02:56:25;;;;;;;;;;;;;;;5.07;83.47;98998.81;5090902;28;20327;-43
2023/03/07 02:58:51;;;;;;;;;;;;;;;5.22;82.94;98990.88;5091180;28;20328;-43
2023/03/07 03:01:16;;;;;;;;;;;;;;;5.19;82.88;98993.06;5091257;28;19920;-43
2023/03/07 03:03:41;;;;;;;;;;;;;;;4.97;83.46;98995.66;5090889;28;20007;-43
2023/03/07 03:06:07;;;;;;;;;;;;;;;5.00;83.47;98997.09;5090901;28;20402;-42
2023/03/07 03:08:32;;;;;;;;;;;;;;;5.27;82.56;99000.84;5091283;28;20387;-42
2023/03/07 03:10:57;;;;;;;;;;;;;;;5.14;82.96;98996.28;5091281;28;19958;-42
2023/03/07 03:13:23;;;;;;;;;;;;;;;5.18;82.86;98994.06;5090909;28;20359;-42
2023/03/07 03:15:48;;;;;;;;;;;;;;;5.34;81.85;98983.28;5091825;28;20041;-43
2023/03/07 03:18:14;;;;;;;;;;;;;;;5.16;82.60;98988.97;5095566;28;19916;-43
2023/03/07 03:20:42;;;;;;;;;;;;;;;5.30;81.34;98987.28;5095031;28;20424;-43
2023/03/07 03:23:07;;;;;;;;;;;;;;;5.34;81.02;98987.75;5094810;28;19946;-43
2023/03/07 03:25:32;;;;;;;;;;;;;;;5.15;81.24;98992.59;5095456;28;20364;-43
2023/03/07 03:27:57;;;;;;;;;;;;;;;5.36;80.61;98998.91;5106518;28;19912;-43
2023/03/07 03:30:23;;;;;;;;;;;;;;;5.39;81.69;98991.44;5095988;28;19946;-42
2023/03/07 03:32:48;;;;;;;;;;;;;;;5.47;80.03;98990.50;5115666;28;19912;-42
2023/03/07 03:35:14;;;;;;;;;;;;;;;5.13;80.03;98993.81;5115242;28;19939;-42
2023/03/07 03:37:39;;;;;;;;;;;;;;;5.01;81.07;98999.56;5109089;28;19997;-42
2023/03/07 03:40:12;;;;;;;;;;;;;;;4.97;81.98;98993.03;5094799;28;19911;-41
2023/03/07 03:42:38;;;;;;;;;;;;;;;5.03;80.96;99002.84;5094792;28;19916;-42
2023/03/07 03:45:03;;;;;;;;;;;;;;;4.78;82.68;99002.34;5094629;28;20456;-42
2023/03/07 03:47:28;;;;;;;;;;;;;;;4.82;82.88;98989.63;5094704;28;19919;-42
2023/03/07 03:49:54;;;;;;;;;;;;;;;5.02;83.34;98990.63;5094521;28;19923;-42
2023/03/07 03:52:19;;;;;;;;;;;;;;;4.85;82.92;98991.84;5094406;28;20312;-42
2023/03/07 03:54:45;;;;;;;;;;;;;;;4.68;84.49;98993.88;5094562;28;19916;-41
2023/03/07 03:57:14;;;;;;;;;;;;;;;5.27;82.43;98998.22;5094388;28;19916;-42
2023/03/07 03:59:39;;;;;;;;;;;;;;;5.11;81.98;98994.00;5094409;28;19912;-43
2023/03/07 04:02:05;;;;;;;;;;;;;;;4.64;82.70;98992.63;5094426;28;20282;-43
2023/03/07 04:04:30;;;;;;;;;;;;;;;4.68;84.18;98994.72;5094493;28;19912;-43
2023/03/07 04:06:55;;;;;;;;;;;;;;;4.50;83.63;98995.06;5094182;28;19912;-43
2023/03/07 04:09:20;;;;;;;;;;;;;;;4.50;84.05;98991.63;5091187;28;20033;-43
2023/03/07 04:11:46;;;;;;;;;;;;;;;4.62;83.50;99003.34;5108804;28;19915;-42
2023/03/07 04:14:11;;;;;;;;;;;;;;;4.57;83.30;99015.44;5099536;28;19920;-43
2023/03/07 04:16:36;;;;;;;;;;;;;;;4.53;83.91;99016.78;5093956;28;19958;-42
2023/03/07 04:19:02;;;;;;;;;;;;;;;4.56;83.40;99011.97;5094169;28;19912;-42
2023/03/07 04:21:27;;;;;;;;;;;;;;;4.50;83.55;99015.34;5093907;28;19912;-42
2023/03/07 04:23:55;;;;;;;;;;;;;;;4.80;83.28;99015.34;5094209;28;20253;-43
2023/03/07 04:26:21;;;;;;;;;;;;;;;4.46;83.40;99012.25;5094114;28;19916;-43
2023/03/07 04:28:48;;;;;;;;;;;;;;;4.39;84.18;99021.06;5093934;28;19913;-42
2023/03/07 04:31:23;;;;;;;;;;;;;;;4.19;85.18;99010.22;5093875;28;20034;-43
2023/03/07 04:33:48;;;;;;;;;;;;;;;4.20;84.62;99002.16;5093567;28;19952;-42
2023/03/07 04:36:17;;;;;;;;;;;;;;;4.29;84.50;99013.44;5093515;28;20328;-42
2023/03/07 04:38:43;;;;;;;;;;;;;;;4.15;84.37;99016.84;5092654;28;19944;-43
2023/03/07 04:41:15;;;;;;;;;;;;;;;4.20;84.89;99014.50;5092392;28;19912;-42
2023/03/07 04:43:40;;;;;;;;;;;;;;;4.09;84.82;99011.34;5092038;28;20363;-42
2023/03/07 04:46:06;;;;;;;;;;;;;;;3.96;85.46;99023.44;5092543;28;19923;-43
2023/03/07 04:48:31;;;;;;;;;;;;;;;4.11;85.32;99025.13;5091834;28;19912;-42
2023/03/07 04:50:57;;;;;;;;;;;;;;;4.09;86.37;99023.66;5092569;28;19920;-37
2023/03/07 04:53:22;;;;;;;;;;;;;;;4.27;85.17;99024.16;5092799;28;19912;-36
2023/03/07 04:55:47;;;;;;;;;;;;;;;4.19;84.98;99026.88;5092777;28;20304;-43
2023/03/07 04:58:13;;;;;;;;;;;;;;;4.20;85.12;99032.94;5092819;28;19916;-43
2023/03/07 05:00:39;;;;;;;;;;;;;;;4.15;85.93;99022.97;5092850;28;20279;-43
2023/03/07 05:03:05;;;;;;;;;;;;;;;4.28;85.42;99015.25;5093252;28;20393;-37
2023/03/07 05:05:30;;;;;;;;;;;;;;;4.49;84.46;99024.25;5091528;28;19923;-38
2023/03/07 05:07:55;;;;;;;;;;;;;;;4.58;83.68;99024.97;5093173;28;19916;-37
2023/03/07 05:10:20;;;;;;;;;;;;;;;4.58;83.63;99030.25;5093054;28;19955;-37
2023/03/07 05:12:46;;;;;;;;;;;;;;;4.76;84.11;99040.41;5093307;28;19919;-37
2023/03/07 05:15:11;;;;;;;;;;;;;;;5.00;84.05;99042.75;5093058;28;20396;-38
2023/03/07 05:17:36;;;;;;;;;;;;;;;5.00;82.98;99034.84;5092742;28;19935;-37
2023/03/07 05:20:02;;;;;;;;;;;;;;;4.92;83.61;99028.88;5093011;28;19947;-38
2023/03/07 05:22:28;;;;;;;;;;;;;;;5.08;83.83;99034.75;5092706;28;19920;-37
2023/03/07 05:24:53;;;;;;;;;;;;;;;5.39;82.05;99027.59;5092694;28;19920;-37
2023/03/07 05:27:18;;;;;;;;;;;;;;;5.41;81.53;99026.38;5092700;28;19916;-36
2023/03/07 05:29:44;;;;;;;;;;;;;;;5.46;81.50;99023.16;5092810;28;19916;-35
2023/03/07 05:32:09;;;;;;;;;;;;;;;5.39;81.91;99031.03;5092468;28;19912;-36
2023/03/07 05:34:35;;;;;;;;;;;;;;;5.53;81.64;99041.72;5092286;28;19919;-35
2023/03/07 05:37:00;;;;;;;;;;;;;;;5.47;82.45;99038.81;5091924;28;19922;-36
2023/03/07 05:39:26;;;;;;;;;;;;;;;5.71;83.32;99036.78;5091673;28;19912;-36
2023/03/07 05:41:51;;;;;;;;;;;;;;;6.75;79.13;99048.56;5092198;28;19916;-36
2023/03/07 05:44:17;;;;;;;;;;;;;;;7.37;78.57;99049.44;5092163;28;20422;-36
2023/03/07 05:46:42;;;;;;;;;;;;;;;8.11;74.35;99050.34;5092040;28;19912;-36
2023/03/07 05:49:07;;;;;;;;;;;;;;;8.56;72.86;99048.69;5092277;28;19919;-35
2023/03/07 05:51:33;;;;;;;;;;;;;;;9.05;70.11;99045.72;5092046;28;20394;-37
2023/03/07 05:53:58;;;;;;;;;;;;;;;9.43;68.07;99042.25;5091277;28;20468;-37
2023/03/07 05:56:23;;;;;;;;;;;;;;;9.68;67.90;99047.63;5091565;28;19926;-36
2023/03/07 05:58:48;;;;;;;;;;;;;;;9.93;66.34;99045.00;5092148;28;19912;-36
2023/03/07 06:01:14;;;;;;;;;;;;;;;10.00;64.25;99045.75;5092016;28;19978;-36
2023/03/07 06:03:39;;;;;;;;;;;;;;;10.06;63.93;99058.19;5092022;28;19912;-36
2023/03/07 06:06:05;;;;;;;;;;;;;;;9.86;64.49;99054.84;5091416;28;20263;-36
2023/03/07 06:08:30;;;;;;;;;;;;;;;10.10;63.36;99046.06;5091914;28;19920;-36
2023/03/07 06:10:55;;;;;;;;;;;;;;;10.43;61.32;99054.81;5090586;28;19920;-36
2023/03/07 06:13:22;;;;;;;;;;;;;;;10.45;59.87;99058.91;5091382;28;20348;-36
2023/03/07 06:15:48;;;;;;;;;;;;;;;9.51;61.63;99064.06;5091808;28;20043;-36
2023/03/07 06:18:13;;;;;;;;;;;;;;;10.18;60.80;99056.47;5092191;28;19973;-36
2023/03/07 06:20:39;;;;;;;;;;;;;;;10.54;59.45;99052.25;5091911;28;19916;-37
2023/03/07 06:23:04;;;;;;;;;;;;;;;10.17;58.74;99059.31;5092091;28;20379;-38
2023/03/07 06:25:29;;;;;;;;;;;;;;;10.43;59.74;99060.94;5092075;28;20046;-36
2023/03/07 06:27:59;;;;;;;;;;;;;;;10.66;57.61;99070.16;5091694;28;20347;-37
2023/03/07 06:30:25;;;;;;;;;;;;;;;11.19;57.60;99068.75;5091409;28;19923;-37
2023/03/07 06:32:50;;;;;;;;;;;;;;;11.47;56.14;99060.19;5091549;28;19912;-37
2023/03/07 06:35:15;;;;;;;;;;;;;;;12.07;54.72;99070.84;5091471;28;19912;-37
2023/03/07 06:37:41;;;;;;;;;;;;;;;12.44;53.72;99073.28;5091551;28;19918;-37
2023/03/07 06:40:08;;;;;;;;;;;;;;;12.52;53.41;99072.94;5091229;28;19912;-35
2023/03/07 06:42:33;;;;;;;;;;;;;;;12.97;52.61;99076.84;5091749;28;19970;-35
2023/03/07 06:44:58;;;;;;;;;;;;;;;13.30;51.83;99067.38;5091122;28;19912;-37
2023/03/07 06:47:23;;;;;;;;;;;;;;;14.26;50.31;99077.38;5091548;28;19912;-37
2023/03/07 06:49:49;;;;;;;;;;;;;;;14.66;47.74;99069.16;5090220;28;20323;-36
2023/03/07 06:52:14;;;;;;;;;;;;;;;15.21;46.27;99085.38;5089773;28;19923;-37
2023/03/07 06:54:39;;;;;;;;;;;;;;;15.72;45.88;99079.78;5090501;28;20423;-37
2023/03/07 06:57:05;;;;;;;;;;;;;;;15.75;45.63;99072.06;5090563;28;19969;-37
2023/03/07 06:59:30;;;;;;;;;;;;;;;16.08;44.31;99077.47;5090347;28;19920;-36
2023/03/07 07:01:55;;;;;;;;;;;;;;;16.40;44.05;99083.63;5089260;28;19912;-37
2023/03/07 07:04:20;;;;;;;;;;;;;;;16.52;43.24;99091.47;5090142;28;19961;-37
2023/03/07 07:06:46;;;;;;;;;;;;;;;16.86;42.09;99083.13;5090718;28;19922;-37
2023/03/07 07:09:12;;;;;;;;;;;;;;;17.19;41.54;99084.63;5090921;28;19950;-37
2023/03/07 07:11:38;;;;;;;;;;;;;;;17.38;41.54;99082.28;5090658;28;19961;-36
2023/03/07 07:14:03;;;;;;;;;;;;;;;17.14;41.58;99087.28;5090629;28;20421;-43
2023/03/07 07:16:28;;;;;;;;;;;;;;;17.59;40.89;99079.63;5090885;28;19937;-44
2023/03/07 07:18:53;;;;;;;;;;;;;;;17.78;40.46;99088.00;5090301;28;19912;-44
2023/03/07 07:21:19;;;;;;;;;;;;;;;18.36;39.27;99080.53;5090037;28;19916;-43
2023/03/07 07:23:44;;;;;;;;;;;;;;;18.59;39.68;99083.75;5090702;28;19924;-44
2023/03/07 07:26:09;;;;;;;;;;;;;;;19.13;37.53;99075.00;5089764;28;19912;-44
2023/03/07 07:28:35;;;;;;;;;;;;;;;19.48;37.14;99070.50;5090783;28;19919;-45
2023/03/07 07:31:00;;;;;;;;;;;;;;;19.83;36.31;99076.78;5090562;28;19916;-43
2023/03/07 07:33:25;;;;;;;;;;;;;;;20.23;35.37;99079.47;5090635;28;19931;-46
2023/03/07 07:35:51;;;;;;;;;;;;;;;20.00;35.62;99076.41;5090260;28;20402;-45
2023/03/07 07:38:16;;;;;;;;;;;;;;;20.28;35.47;99082.94;5090317;28;19919;-44
2023/03/07 07:40:41;;;;;;;;;;;;;;;20.74;34.33;99083.63;5090355;28;19912;-43
2023/03/07 07:43:11;;;;;;;;;;;;;;;20.93;34.66;99078.28;5090871;28;20288;-45
2023/03/07 07:45:36;;;;;;;;;;;;;;;20.94;34.14;99077.97;5090160;28;19919;-44
2023/03/07 07:48:01;;;;;;;;;;;;;;;21.06;33.46;99080.28;5090287;28;19916;-47
2023/03/07 07:50:26;;;;;;;;;;;;;;;20.81;33.90;99084.06;5090505;28;19916;-44
2023/03/07 07:52:52;;;;;;;;;;;;;;;19.78;35.79;99074.16;5090915;28;19953;-44
2023/03/07 07:55:17;;;;;;;;;;;;;;;20.46;35.23;99083.31;5090663;28;19912;-45
2023/03/07 07:57:43;;;;;;;;;;;;;;;20.40;35.10;99076.34;5090625;28;20329;-44
2023/03/07 08:00:10;;;;;;;;;;;;;;;20.80;34.59;99077.84;5090576;28;19912;-45
2023/03/07 08:02:35;;;;;;;;;;;;;;;20.68;34.24;99072.06;5092281;28;19977;-43
2023/03/07 08:05:00;;;;;;;;;;;;;;;21.48;33.94;99074.09;5092981;28;19924;-44
2023/03/07 08:07:25;;;;;;;;;;;;;;;22.28;32.61;99070.75;5093070;28;20339;-45
2023/03/07 08:09:51;;;;;;;;;;;;;;;22.00;32.21;99068.72;5092872;28;19969;-43
2023/03/07 08:12:16;;;;;;;;;;;;;;;22.29;32.32;99069.63;5094284;28;19911;-43
2023/03/07 08:14:41;;;;;;;;;;;;;;;22.31;31.52;99064.72;5094089;28;19916;-44
2023/03/07 08:17:06;;;;;;;;;;;;;;;21.69;32.37;99062.16;5093742;28;19961;-43
2023/03/07 08:19:32;;;;;;;;;;;;;;;22.00;32.45;99060.56;5093789;28;19980;-43
2023/03/07 08:21:58;;;;;;;;;;;;;;;22.57;31.77;99057.75;5093939;28;19977;-43
2023/03/07 08:24:23;;;;;;;;;;;;;;;23.18;30.68;99060.38;5093691;28;20014;-43
2023/03/07 08:26:49;;;;;;;;;;;;;;;22.57;31.74;99065.06;5093305;28;19955;-43
2023/03/07 08:29:14;;;;;;;;;;;;;;;22.58;31.30;99058.53;5093380;28;19916;-44
2023/03/07 08:31:42;;;;;;;;;;;;;;;22.95;31.09;99065.69;5093253;28;19924;-44
2023/03/07 08:34:07;;;;;;;;;;;;;;;23.45;30.60;99058.72;5092713;28;19970;-43
2023/03/07 08:36:32;;;;;;;;;;;;;;;23.34;29.84;99063.56;5092514;28;19983;-43
2023/03/07 08:38:57;;;;;;;;;;;;;;;23.53;29.81;99060.72;5092586;28;20307;-43
2023/03/07 08:41:23;;;;;;;;;;;;;;;23.43;30.22;99059.81;5092788;28;20002;-43
2023/03/07 08:43:48;;;;;;;;;;;;;;;23.13;30.07;99058.59;5092187;28;19916;-42
2023/03/07 08:46:13;;;;;;;;;;;;;;;22.65;30.62;99065.16;5092569;28;19923;-45
2023/03/07 08:48:39;;;;;;;;;;;;;;;23.11;30.80;99059.97;5092933;28;19973;-44
2023/03/07 08:51:05;;;;;;;;;;;;;;;23.26;29.91;99051.50;5092729;28;19916;-42
2023/03/07 08:53:31;;;;;;;;;;;;;;;23.32;30.51;99049.50;5092578;28;19912;-43
2023/03/07 08:55:56;;;;;;;;;;;;;;;23.63;30.52;99049.63;5092367;28;19920;-43
2023/03/07 08:58:21;;;;;;;;;;;;;;;23.29;30.68;99047.41;5092400;28;19911;-41
2023/03/07 09:00:46;;;;;;;;;;;;;;;23.08;30.45;99053.25;5092594;28;19916;-42
2023/03/07 09:03:11;;;;;;;;;;;;;;;23.52;29.59;99049.06;5092976;28;20002;-43
2023/03/07 09:05:40;;;;;;;;;;;;;;;23.98;29.61;99049.91;5092795;28;19912;-42
2023/03/07 09:08:06;;;;;;;;;;;;;;;23.36;29.71;99051.31;5092475;28;20300;-42
2023/03/07 09:10:32;;;;;;;;;;;;;;;23.25;30.31;99044.50;5093251;28;19916;-43
2023/03/07 09:12:57;;;;;;;;;;;;;;;23.40;29.89;99051.50;5092493;28;19912;-42
2023/03/07 09:15:22;;;;;;;;;;;;;;;24.12;29.37;99047.13;5092126;28;19959;-42
2023/03/07 09:17:48;;;;;;;;;;;;;;;23.23;29.71;99044.00;5091864;28;19946;-42
2023/03/07 09:20:17;;;;;;;;;;;;;;;22.39;30.63;99042.34;5092695;28;19916;-41
2023/03/07 09:22:42;;;;;;;;;;;;;;;22.80;31.01;99041.59;5092172;28;19921;-42
2023/03/07 09:25:07;;;;;;;;;;;;;;;22.48;30.66;99034.34;5092274;28;19916;-42
2023/03/07 09:27:33;;;;;;;;;;;;;;;22.91;30.45;99029.44;5092460;28;19913;-43
2023/03/07 09:29:58;;;;;;;;;;;;;;;22.34;30.13;99032.41;5092220;28;19916;-43
2023/03/07 09:32:23;;;;;;;;;;;;;;;22.69;30.74;99034.75;5092205;28;20412;-42
2023/03/07 09:34:50;;;;;;;;;;;;;;;23.18;31.03;99025.09;5091940;28;19912;-42
2023/03/07 09:37:17;;;;;;;;;;;;;;;23.89;29.17;99028.13;5092061;28;19912;-42
2023/03/07 09:39:42;;;;;;;;;;;;;;;24.56;27.77;99029.97;5091611;28;19984;-42
2023/03/07 09:42:17;;;;;;;;;;;;;;;24.86;28.23;99029.44;5091849;28;20287;-42
2023/03/07 09:44:54;;;;;;;;;;;;;;;24.80;26.99;99025.25;5091978;28;20324;-42
2023/03/07 09:47:23;;;;;;;;;;;;;;;24.22;28.14;99022.41;5091894;28;19912;-41
2023/03/07 09:49:49;;;;;;;;;;;;;;;24.12;27.66;99022.66;5091533;28;20388;-41
2023/03/07 09:52:20;;;;;;;;;;;;;;;24.12;27.61;99018.06;5091481;28;20021;-43
2023/03/07 09:54:56;;;;;;;;;;;;;;;23.84;28.58;99009.25;5091331;28;20369;-42
2023/03/07 09:57:49;;;;;;;;;;;;;;;23.75;28.98;99006.41;5090583;28;20367;-42
2023/03/07 10:00:17;;;;;;;;;;;;;;;24.14;28.44;98999.53;5089115;28;19966;-42
2023/03/07 10:02:47;;;;;;;;;;;;;;;24.39;27.65;99002.69;5091425;28;19912;-42
2023/03/07 10:05:34;;;;;;;;;;;;;;;24.41;28.08;98997.72;5091559;28;19919;-42
2023/03/07 10:08:00;;;;;;;;;;;;;;;24.23;28.66;98994.09;5091203;28;19981;-41
2023/03/07 10:10:32;;;;;;;;;;;;;;;24.49;27.80;98993.44;5090933;28;19921;-41
2023/03/07 10:13:03;;;;;;;;;;;;;;;24.30;27.97;98985.53;5091245;28;19912;-41
2023/03/07 10:15:41;;;;;;;;;;;;;;;23.61;28.62;98989.41;5091141;28;19934;-41
2023/03/07 10:18:15;;;;;;;;;;;;;;;23.54;28.82;98984.38;5091340;28;20007;-43
2023/03/07 10:20:46;;;;;;;;;;;;;;;23.46;30.00;98978.91;5090918;28;20007;-42
2023/03/07 10:23:31;;;;;;;;;;;;;;;22.87;29.04;98978.81;5091125;28;20418;-42
2023/03/07 10:26:00;;;;;;;;;;;;;;;22.41;30.50;98981.31;5090994;28;20003;-42
2023/03/07 10:28:27;;;;;;;;;;;;;;;22.56;30.89;98965.84;5090916;28;19912;-42
2023/03/07 10:30:58;;;;;;;;;;;;;;;22.56;30.20;98965.84;5090912;28;20376;-42
2023/03/07 10:33:24;;;;;;;;;;;;;;;22.42;30.95;98960.44;5091153;28;19919;-42
2023/03/07 10:35:56;;;;;;;;;;;;;;;22.16;31.75;98960.91;5090690;28;19912;-42
2023/03/07 10:38:29;;;;;;;;;;;;;;;21.23;32.38;98952.66;5090743;28;20332;-42
2023/03/07 10:41:03;;;;;;;;;;;;;;;21.12;32.60;98953.91;5090642;28;19916;-41
2023/03/07 10:43:30;;;;;;;;;;;;;;;21.69;32.77;98946.56;5089406;28;20276;-43
2023/03/07 10:46:16;;;;;;;;;;;;;;;20.98;32.73;98938.41;5090737;28;19913;-41
2023/03/07 10:48:43;;;;;;;;;;;;;;;19.83;33.70;98941.81;5090132;28;20289;-42
2023/03/07 10:51:23;;;;;;;;;;;;;;;20.74;32.53;98938.44;5090785;28;19916;-42
2023/03/07 10:53:49;;;;;;;;;;;;;;;20.93;32.54;98922.22;5090466;28;19986;-42
2023/03/07 10:56:15;;;;;;;;;;;;;;;20.45;33.88;98925.78;5090307;28;19923;-42
2023/03/07 10:58:59;;;;;;;;;;;;;;;19.99;35.41;98910.09;5090313;28;20449;-41
2023/03/07 11:01:26;;;;;;;;;;;;;;;20.28;34.39;98910.03;5090416;28;19968;-42
2023/03/07 11:03:51;;;;;;;;;;;;;;;19.98;35.35;98904.97;5089996;28;19947;-42
2023/03/07 11:06:39;;;;;;;;;;;;;;;20.47;34.33;98912.00;5089947;28;19939;-43
2023/03/07 11:09:22;;;;;;;;;;;;;;;21.17;33.21;98886.16;5090394;28;20010;-41
2023/03/07 11:11:52;;;;;;;;;;;;;;;20.93;33.57;98892.47;5090558;28;19923;-42
2023/03/07 11:14:19;;;;;;;;;;;;;;;20.84;32.91;98880.72;5090097;28;19942;-42
2023/03/07 11:16:48;;;;;;;;;;;;;;;20.34;33.26;98891.88;5090162;28;19920;-43
2023/03/07 11:19:31;;;;;;;;;;;;;;;19.72;34.76;98884.44;5090298;28;19912;-41
2023/03/07 11:21:57;;;;;;;;;;;;;;;19.65;35.33;98870.44;5090192;28;19991;-42
2023/03/07 11:24:27;;;;;;;;;;;;;;;20.10;35.26;98860.28;5090084;28;20007;-41
2023/03/07 11:26:53;;;;;;;;;;;;;;;20.20;33.55;98855.81;5090230;28;19999;-43
2023/03/07 11:29:18;;;;;;;;;;;;;;;19.75;33.62;98847.16;5090238;28;19944;-43
2023/03/07 11:31:56;;;;;;;;;;;;;;;19.94;32.24;98852.63;5090379;28;20382;-42
2023/03/07 11:34:24;;;;;;;;;;;;;;;20.06;32.65;98839.53;5090262;28;19912;-43
2023/03/07 11:37:00;;;;;;;;;;;;;;;20.13;32.76;98829.19;5091007;28;20397;-42
2023/03/07 11:39:28;;;;;;;;;;;;;;;19.82;34.39;98834.13;5093976;28;19912;-42
2023/03/07 11:41:54;;;;;;;;;;;;;;;20.45;33.63;98822.31;5094066;28;19913;-42
2023/03/07 11:44:43;;;;;;;;;;;;;;;20.31;34.04;98814.09;5094077;28;19965;-42
2023/03/07 11:47:27;;;;;;;;;;;;;;;19.92;33.47;98828.63;5094183;28;19927;-43
2023/03/07 11:50:08;;;;;;;;;;;;;;;19.69;34.00;98806.69;5092987;28;19916;-43
2023/03/07 11:52:51;;;;;;;;;;;;;;;19.80;34.07;98803.91;5094189;28;19912;-43
2023/03/07 11:55:17;;;;;;;;;;;;;;;20.03;34.91;98794.19;5093318;28;19912;-42
2023/03/07 11:57:51;;;;;;;;;;;;;;;20.61;34.08;98796.69;5093573;28;20366;-43
2023/03/07 12:00:22;;;;;;;;;;;;;;;20.69;33.41;98801.47;5093914;28;19975;-42
2023/03/07 12:02:55;;;;;;;;;;;;;;;19.63;34.87;98797.06;5093734;28;19963;-42
2023/03/07 12:05:39;;;;;;;;;;;;;;;18.82;35.64;98793.97;5093590;28;19923;-42
2023/03/07 12:08:20;;;;;;;;;;;;;;;19.60;34.76;98789.50;5093773;28;19916;-42
2023/03/07 12:10:48;;;;;;;;;;;;;;;19.61;34.74;98788.44;5093366;28;19977;-42
2023/03/07 12:13:14;;;;;;;;;;;;;;;19.81;34.90;98781.22;5093642;28;19912;-42
2023/03/07 12:15:48;;;;;;;;;;;;;;;19.49;35.37;98786.09;5093581;28;19965;-42
2023/03/07 12:18:34;;;;;;;;;;;;;;;20.35;34.40;98774.59;5093273;28;19916;-41
2023/03/07 12:21:16;;;;;;;;;;;;;;;20.70;33.31;98765.19;5093354;28;19916;-43
2023/03/07 12:23:45;;;;;;;;;;;;;;;20.25;32.59;98762.03;5092907;28;19931;-42
2023/03/07 12:26:14;;;;;;;;;;;;;;;20.02;33.05;98763.69;5092766;28;19920;-42
2023/03/07 12:28:47;;;;;;;;;;;;;;;19.84;33.71;98765.28;5093222;28;20268;-41
2023/03/07 12:31:18;;;;;;;;;;;;;;;20.35;32.69;98760.28;5093019;28;20022;-42
2023/03/07 12:34:00;;;;;;;;;;;;;;;19.84;33.71;98764.47;5093091;28;19912;-42
2023/03/07 12:36:25;;;;;;;;;;;;;;;19.66;32.83;98764.06;5092928;28;19965;-42
2023/03/07 12:38:57;;;;;;;;;;;;;;;20.07;32.72;98760.94;5092876;28;20386;-42
2023/03/07 12:41:31;;;;;;;;;;;;;;;20.08;31.96;98754.41;5092702;28;20336;-42
2023/03/07 12:43:59;;;;;;;;;;;;;;;20.31;31.43;98750.09;5092483;28;20391;-42
2023/03/07 12:46:28;;;;;;;;;;;;;;;20.05;32.84;98754.22;5092067;28;19961;-42
2023/03/07 12:48:57;;;;;;;;;;;;;;;20.38;32.71;98748.91;5091126;28;19955;-41
2023/03/07 12:51:26;;;;;;;;;;;;;;;19.60;33.52;98748.25;5092363;28;19916;-42
2023/03/07 12:53:58;;;;;;;;;;;;;;;19.32;33.39;98754.19;5092484;28;20206;-42